Time;durP1;ratioP1;P1;durP2;ratioP2;P2;SDS_P1;SDS_P2;PMS_P1;PMS_P2;Temp;Humidity;BMP_temperature;BMP_pressure;BME280_temperature;BME280_humidity;BME280_pressure;Samples;Min_cycle;Max_cycle;Signal;HPM_P1;HPM_P2
2024/02/10 00:01:45;;;;;;;16.73;6.28;;;;;;;8.31;56.00;93130.56;5022402;28;20228;-82
2024/02/10 00:04:13;;;;;;;15.20;6.50;;;;;;;8.34;55.92;93130.69;5022441;28;20096;-82
2024/02/10 00:06:39;;;;;;;15.48;5.82;;;;;;;8.35;56.19;93132.28;5021308;28;20026;-81
2024/02/10 00:09:08;;;;;;;18.58;6.10;;;;;;;8.37;56.31;93132.75;5022098;28;20026;-82
2024/02/10 00:11:38;;;;;;;10.02;5.15;;;;;;;8.40;56.10;93139.28;5022144;28;20065;-81
2024/02/10 00:14:05;;;;;;;17.02;5.70;;;;;;;8.45;56.00;93147.13;5022297;28;20025;-82
2024/02/10 00:16:33;;;;;;;16.25;5.32;;;;;;;8.49;55.87;93156.03;5021690;28;20097;-82
2024/02/10 00:19:02;;;;;;;11.35;5.47;;;;;;;8.48;55.77;93145.72;5020087;28;20053;-81
2024/02/10 00:21:29;;;;;;;17.27;5.25;;;;;;;8.49;55.61;93148.06;5020747;28;20316;-81
2024/02/10 00:23:55;;;;;;;10.82;4.25;;;;;;;8.49;55.48;93142.75;5022157;28;20094;-81
2024/02/10 00:26:22;;;;;;;15.15;4.70;;;;;;;8.35;55.85;93144.78;5021949;28;20134;-81
2024/02/10 00:28:50;;;;;;;15.95;5.57;;;;;;;8.35;56.13;93172.09;5022031;28;20026;-82
2024/02/10 00:31:16;;;;;;;15.65;5.60;;;;;;;8.42;56.16;93174.31;5022109;28;20026;-82
2024/02/10 00:33:46;;;;;;;10.20;4.88;;;;;;;8.33;56.04;93152.28;5022048;28;20048;-81
2024/02/10 00:36:12;;;;;;;13.60;4.88;;;;;;;8.24;56.46;93163.69;5022527;28;20057;-81
2024/02/10 00:38:40;;;;;;;17.92;6.25;;;;;;;8.23;56.62;93158.69;5025496;28;20331;-81
2024/02/10 00:41:06;;;;;;;9.75;4.95;;;;;;;8.24;56.75;93168.19;5025122;28;20093;-81
2024/02/10 00:43:32;;;;;;;19.85;5.32;;;;;;;8.18;56.90;93167.59;5025267;28;20025;-81
2024/02/10 00:45:59;;;;;;;12.20;5.32;;;;;;;8.17;56.83;93159.94;5025265;28;20026;-80
2024/02/10 00:48:28;;;;;;;13.60;5.47;;;;;;;8.17;57.00;93147.44;5025427;28;20021;-80
2024/02/10 00:51:00;;;;;;;13.82;5.30;;;;;;;8.15;57.37;93147.00;5024235;28;20108;-80
2024/02/10 00:53:26;;;;;;;12.65;5.10;;;;;;;8.04;57.68;93143.13;4986041;28;1148682;-81
2024/02/10 00:55:54;;;;;;;14.35;5.88;;;;;;;8.06;57.69;93145.44;5026239;28;20220;-80
2024/02/10 00:58:19;;;;;;;13.40;5.60;;;;;;;8.00;57.77;93136.88;5026180;28;20315;-80
2024/02/10 01:00:45;;;;;;;13.32;5.97;;;;;;;7.97;58.05;93143.56;5026216;28;20037;-80
2024/02/10 01:03:13;;;;;;;17.15;5.72;;;;;;;7.92;58.06;93150.94;5026187;28;20220;-80
2024/02/10 01:05:39;;;;;;;14.77;6.25;;;;;;;7.81;58.55;93135.31;5026086;28;20132;-80
2024/02/10 01:08:05;;;;;;;11.55;5.25;;;;;;;7.87;58.74;93140.47;5024660;28;20212;-81
2024/02/10 01:10:31;;;;;;;15.80;6.15;;;;;;;7.87;58.67;93138.59;5025933;28;20026;-80
2024/02/10 01:13:01;;;;;;;13.48;6.13;;;;;;;7.92;58.56;93119.88;5025769;28;20075;-81
2024/02/10 01:15:28;;;;;;;12.27;5.80;;;;;;;7.95;58.52;93124.53;5025817;28;20208;-81
2024/02/10 01:17:53;;;;;;;14.07;5.53;;;;;;;7.99;58.43;93124.69;5025620;28;20030;-80
2024/02/10 01:20:19;;;;;;;18.58;5.97;;;;;;;7.94;58.40;93120.31;5025715;28;20028;-81
2024/02/10 01:22:45;;;;;;;13.75;5.95;;;;;;;7.90;58.62;93123.94;5025501;28;20042;-81
2024/02/10 01:25:10;;;;;;;14.20;4.70;;;;;;;7.93;58.21;93115.31;5025499;28;20026;-81
2024/02/10 01:27:35;;;;;;;11.55;4.78;;;;;;;7.92;58.37;93108.47;5025543;28;20048;-81
2024/02/10 01:30:01;;;;;;;14.45;5.25;;;;;;;7.94;58.23;93106.28;5025400;28;20335;-80
2024/02/10 01:32:27;;;;;;;10.63;4.00;;;;;;;7.95;58.30;93113.13;5025906;28;20045;-81
2024/02/10 01:34:54;;;;;;;15.25;4.65;;;;;;;7.88;58.23;93123.47;5025746;28;20033;-83
2024/02/10 01:37:20;;;;;;;14.52;4.20;;;;;;;7.89;58.53;93115.16;5025449;28;20029;-83
2024/02/10 01:39:57;;;;;;;19.30;4.15;;;;;;;7.88;58.47;93097.69;5025504;28;20037;-82
2024/02/10 01:42:37;;;;;;;11.13;4.32;;;;;;;7.92;58.34;93119.09;5025769;28;20109;-80
2024/02/10 01:45:08;;;;;;;14.45;4.60;;;;;;;7.91;58.10;93104.25;5025707;28;20232;-81
2024/02/10 01:47:36;;;;;;;12.10;4.72;;;;;;;7.91;58.13;93128.13;5025594;28;20068;-81
2024/02/10 01:50:05;;;;;;;13.43;5.90;;;;;;;7.91;57.83;93136.09;5025763;28;20026;-81
2024/02/10 01:52:35;;;;;;;18.33;5.18;;;;;;;7.79;57.92;93126.88;5025355;28;20236;-80
2024/02/10 01:55:01;;;;;;;18.40;6.03;;;;;;;7.61;58.67;93134.06;5025111;28;20033;-81
2024/02/10 01:57:27;;;;;;;25.73;7.05;;;;;;;7.26;60.30;93149.16;5025181;28;20018;-81
2024/02/10 01:59:53;;;;;;;15.70;5.85;;;;;;;7.19;60.51;93135.59;5025686;28;20021;-81
2024/02/10 02:02:18;;;;;;;17.17;6.53;;;;;;;7.18;60.58;93134.00;5025284;28;20355;-81
2024/02/10 02:04:44;;;;;;;10.85;5.18;;;;;;;7.14;60.88;93096.72;5025291;28;20080;-81
2024/02/10 02:07:09;;;;;;;13.90;5.57;;;;;;;7.14;61.16;93117.16;5025353;28;20022;-80
2024/02/10 02:09:35;;;;;;;17.95;6.00;;;;;;;7.03;61.56;93096.25;5025298;28;20034;-82
2024/02/10 02:12:08;;;;;;;17.77;5.85;;;;;;;7.08;61.34;93097.97;5024703;28;20097;-82
2024/02/10 02:14:37;;;;;;;13.82;6.07;;;;;;;7.10;61.48;93095.78;5024919;28;20029;-81
2024/02/10 02:17:04;;;;;;;13.63;6.15;;;;;;;7.14;61.49;93093.31;5024471;28;20037;-82
2024/02/10 02:19:30;;;;;;;16.08;6.20;;;;;;;7.21;61.08;93091.00;5024859;28;20026;-81
2024/02/10 02:21:55;;;;;;;11.95;5.32;;;;;;;7.26;60.73;93098.00;5024760;28;20084;-81
2024/02/10 02:24:23;;;;;;;15.57;5.72;;;;;;;7.10;61.46;93089.72;5024518;28;20076;-81
2024/02/10 02:26:49;;;;;;;10.50;5.45;;;;;;;7.13;61.12;93086.47;5024860;28;20049;-81
2024/02/10 02:29:14;;;;;;;16.77;6.03;;;;;;;7.18;60.99;93088.94;5024499;28;20033;-81
2024/02/10 02:31:39;;;;;;;22.45;6.45;;;;;;;7.15;61.04;93093.00;5024647;28;20033;-81
2024/02/10 02:34:05;;;;;;;15.55;7.32;;;;;;;7.17;61.12;93084.75;5024379;28;20056;-80
2024/02/10 02:36:31;;;;;;;14.38;6.43;;;;;;;7.22;60.87;93084.59;5024463;28;20021;-80
2024/02/10 02:38:58;;;;;;;16.42;5.72;;;;;;;7.21;60.85;93086.47;5023364;28;20026;-80
2024/02/10 02:41:25;;;;;;;10.75;5.00;;;;;;;7.26;60.87;93082.88;5024156;28;20030;-80
2024/02/10 02:43:51;;;;;;;20.35;5.90;;;;;;;7.26;60.64;93082.88;5023112;28;20323;-80
2024/02/10 02:46:18;;;;;;;13.73;5.38;;;;;;;7.23;60.33;93102.84;5022951;28;20018;-81
2024/02/10 02:48:43;;;;;;;14.40;5.88;;;;;;;7.12;60.51;93100.78;5024196;28;20076;-81
2024/02/10 02:51:09;;;;;;;15.30;5.68;;;;;;;6.98;61.03;93111.50;5022789;28;20096;-80
2024/02/10 02:53:34;;;;;;;16.42;6.32;;;;;;;7.03;60.69;93104.19;5023684;28;20053;-81
2024/02/10 02:55:59;;;;;;;13.63;5.43;;;;;;;7.02;60.83;93110.59;5023876;28;20033;-81
2024/02/10 02:58:26;;;;;;;17.63;6.10;;;;;;;7.08;61.00;93126.34;5023570;28;20037;-81
2024/02/10 03:00:51;;;;;;;20.73;6.18;;;;;;;7.08;60.59;93121.81;5023361;28;20052;-79
2024/02/10 03:03:19;;;;;;;29.20;6.85;;;;;;;7.05;60.63;93119.81;5023637;28;20030;-80
2024/02/10 03:05:45;;;;;;;16.52;6.45;;;;;;;7.06;60.76;93104.69;5023739;28;20053;-80
2024/02/10 03:08:10;;;;;;;21.40;6.45;;;;;;;7.06;60.89;93115.28;5023585;28;20235;-81
2024/02/10 03:10:36;;;;;;;16.70;6.40;;;;;;;7.14;61.12;93101.25;5023892;28;20025;-81
2024/02/10 03:13:01;;;;;;;15.05;6.35;;;;;;;7.12;61.11;93108.75;5023919;28;20117;-81
2024/02/10 03:15:27;;;;;;;14.60;5.90;;;;;;;7.15;61.15;93093.00;5023583;28;20053;-82
2024/02/10 03:17:54;;;;;;;16.00;6.30;;;;;;;7.15;61.22;93071.81;5022433;28;20152;-81
2024/02/10 03:20:23;;;;;;;17.05;5.90;;;;;;;7.24;60.93;93079.75;5023507;28;20033;-82
2024/02/10 03:22:54;;;;;;;15.10;5.85;;;;;;;7.21;61.04;93085.69;5023573;28;20030;-82
2024/02/10 03:25:21;;;;;;;16.88;5.82;;;;;;;7.28;60.91;93077.28;5023473;28;20069;-81
2024/02/10 03:27:46;;;;;;;15.88;5.35;;;;;;;7.32;60.78;93083.50;5022000;28;20026;-81
2024/02/10 03:30:15;;;;;;;23.90;6.22;;;;;;;7.39;60.26;93100.53;5023131;28;20100;-81
2024/02/10 03:32:42;;;;;;;12.77;5.65;;;;;;;7.42;60.43;93081.31;5023311;28;20220;-81
2024/02/10 03:35:08;;;;;;;17.55;5.30;;;;;;;7.49;59.94;93091.47;5023181;28;20034;-81
2024/02/10 03:37:35;;;;;;;13.98;5.88;;;;;;;7.53;59.97;93094.28;5022845;28;20068;-81
2024/02/10 03:40:07;;;;;;;18.17;6.43;;;;;;;7.60;59.76;93116.59;5023370;28;20060;-81
2024/02/10 03:42:33;;;;;;;17.73;5.57;;;;;;;7.63;59.76;93137.19;5022961;28;20212;-81
2024/02/10 03:44:58;;;;;;;16.45;5.80;;;;;;;7.61;59.54;93117.34;5023075;28;20277;-81
2024/02/10 03:47:25;;;;;;;12.93;6.50;;;;;;;7.66;59.68;93130.47;5023021;28;20052;-82
2024/02/10 03:49:51;;;;;;;16.85;6.32;;;;;;;7.73;59.37;93144.03;5022944;28;20038;-80
2024/02/10 03:52:16;;;;;;;20.52;5.88;;;;;;;7.77;59.42;93129.06;5022838;28;20041;-81
2024/02/10 03:54:41;;;;;;;42.97;8.02;;;;;;;7.60;59.37;93140.47;5022985;28;20037;-82
2024/02/10 03:57:07;;;;;;;14.65;5.40;;;;;;;7.48;59.71;93147.47;5023346;28;20097;-80
2024/02/10 03:59:38;;;;;;;12.55;6.22;;;;;;;7.51;59.86;93133.56;5022953;28;20018;-80
2024/02/10 04:02:05;;;;;;;17.52;6.07;;;;;;;7.44;60.09;93153.38;5023115;28;20021;-79
2024/02/10 04:04:30;;;;;;;16.70;5.88;;;;;;;7.44;59.79;93144.66;5022772;28;20387;-78
2024/02/10 04:06:56;;;;;;;23.55;5.80;;;;;;;7.47;60.10;93145.91;5023508;28;20034;-79
2024/02/10 04:09:24;;;;;;;18.50;6.00;;;;;;;7.52;60.31;93145.75;5024656;28;20087;-79
2024/02/10 04:11:50;;;;;;;15.98;6.78;;;;;;;7.57;60.27;93140.28;5027734;28;20033;-79
2024/02/10 04:14:20;;;;;;;21.25;6.10;;;;;;;7.60;60.30;93142.34;5028272;28;20018;-80
2024/02/10 04:16:51;;;;;;;18.95;6.00;;;;;;;7.66;60.29;93121.75;5027030;28;20034;-80
2024/02/10 04:19:17;;;;;;;16.50;6.28;;;;;;;7.69;60.36;93108.63;5027378;28;20033;-80
2024/02/10 04:21:42;;;;;;;18.13;5.95;;;;;;;7.73;59.79;93117.50;5027224;28;20026;-80
2024/02/10 04:24:14;;;;;;;15.98;6.15;;;;;;;7.75;59.77;93110.03;5027082;28;20021;-80
2024/02/10 04:26:40;;;;;;;16.08;6.60;;;;;;;7.84;59.58;93104.72;5026958;28;20034;-80
2024/02/10 04:29:06;;;;;;;19.48;7.10;;;;;;;7.82;59.56;93099.72;5028407;28;20022;-79
2024/02/10 04:31:31;;;;;;;14.70;6.53;;;;;;;7.86;59.57;93094.59;5028282;28;20334;-80
2024/02/10 04:33:56;;;;;;;18.60;5.78;;;;;;;7.89;59.55;93088.63;5027254;28;20287;-79
2024/02/10 04:36:22;;;;;;;17.83;7.20;;;;;;;7.91;59.45;93072.41;5027454;28;20038;-80
2024/02/10 04:38:48;;;;;;;15.02;6.68;;;;;;;7.99;59.20;93077.69;5027432;28;20033;-80
2024/02/10 04:41:13;;;;;;;26.05;6.93;;;;;;;7.97;59.41;93073.81;5027250;28;20072;-80
2024/02/10 04:43:38;;;;;;;15.90;5.93;;;;;;;7.97;59.27;93069.25;5026957;28;20022;-80
2024/02/10 04:46:04;;;;;;;14.63;6.03;;;;;;;8.01;59.13;93077.38;5026807;28;20105;-80
2024/02/10 04:48:30;;;;;;;15.10;5.68;;;;;;;8.01;59.22;93048.19;5027001;28;20085;-80
2024/02/10 04:50:56;;;;;;;16.50;6.22;;;;;;;8.06;58.76;93065.81;5026973;28;20029;-80
2024/02/10 04:53:25;;;;;;;16.15;5.60;;;;;;;8.04;58.60;93047.56;5026493;28;20045;-80
2024/02/10 04:55:51;;;;;;;17.45;6.00;;;;;;;8.04;58.53;93037.72;5026685;28;20026;-80
2024/02/10 04:58:16;;;;;;;16.25;5.72;;;;;;;8.01;58.00;93061.47;5026596;28;20038;-80
2024/02/10 05:00:42;;;;;;;17.67;5.50;;;;;;;8.00;58.10;93063.34;5026777;28;20034;-81
2024/02/10 05:03:07;;;;;;;16.00;5.75;;;;;;;8.00;57.53;93065.22;5026593;28;20030;-78
2024/02/10 05:05:32;;;;;;;17.88;5.95;;;;;;;7.70;59.11;93061.69;5026254;28;20212;-81
2024/02/10 05:07:58;;;;;;;18.67;6.13;;;;;;;7.59;59.63;93090.38;5026506;28;20149;-81
2024/02/10 05:10:24;;;;;;;16.25;5.75;;;;;;;7.63;59.52;93094.75;5026660;28;20025;-80
2024/02/10 05:12:51;;;;;;;23.20;6.43;;;;;;;7.68;59.27;93103.66;5026567;28;20029;-81
2024/02/10 05:15:18;;;;;;;14.50;5.32;;;;;;;7.64;59.46;93093.66;5026250;28;20033;-80
2024/02/10 05:17:49;;;;;;;16.83;6.57;;;;;;;7.68;59.46;93099.13;5026140;28;20084;-79
2024/02/10 05:20:21;;;;;;;14.77;6.15;;;;;;;7.63;59.66;93101.91;5026278;28;20092;-80
2024/02/10 05:22:51;;;;;;;19.73;5.93;;;;;;;7.52;59.38;93114.72;5025840;28;20029;-79
2024/02/10 05:25:20;;;;;;;17.15;6.63;;;;;;;7.46;59.70;93108.00;5025967;28;20114;-79
2024/02/10 05:27:50;;;;;;;17.52;7.45;;;;;;;7.47;60.01;93098.97;5026292;28;20026;-79
2024/02/10 05:30:21;;;;;;;14.27;6.35;;;;;;;7.48;60.19;93107.69;5026259;28;20228;-80
2024/02/10 05:32:50;;;;;;;16.13;6.25;;;;;;;7.54;59.87;93119.72;5025713;28;20028;-79
2024/02/10 05:35:18;;;;;;;17.13;6.68;;;;;;;7.54;60.16;93125.00;5025887;28;20032;-78
2024/02/10 05:37:48;;;;;;;12.73;5.68;;;;;;;7.53;59.94;93129.53;5025764;28;20022;-79
2024/02/10 05:40:15;;;;;;;14.50;6.13;;;;;;;7.35;60.08;93139.34;5026080;28;20310;-79
2024/02/10 05:42:43;;;;;;;15.85;5.68;;;;;;;7.42;59.90;93150.25;5025521;28;20028;-78
2024/02/10 05:45:09;;;;;;;31.77;6.03;;;;;;;7.40;59.89;93136.53;5025434;28;20056;-78
2024/02/10 05:47:35;;;;;;;17.90;5.93;;;;;;;7.39;59.95;93145.59;5025146;28;20013;-79
2024/02/10 05:50:05;;;;;;;18.65;8.23;;;;;;;7.43;60.17;93151.84;5025357;28;20022;-78
2024/02/10 05:52:34;;;;;;;20.08;6.68;;;;;;;7.43;60.18;93148.41;5024260;28;20095;-79
2024/02/10 05:55:03;;;;;;;22.67;6.25;;;;;;;7.52;59.88;93135.16;5025718;28;20022;-78
2024/02/10 05:57:29;;;;;;;17.40;5.30;;;;;;;7.57;59.87;93129.69;5025423;28;20030;-79
2024/02/10 05:59:55;;;;;;;17.58;6.32;;;;;;;7.57;60.16;93129.69;5025184;28;20031;-80
2024/02/10 06:02:21;;;;;;;17.35;6.07;;;;;;;7.60;59.69;93137.03;5025729;28;20301;-81
2024/02/10 06:04:50;;;;;;;18.70;6.85;;;;;;;7.66;59.68;93137.66;5025624;28;20220;-81
2024/02/10 06:07:18;;;;;;;18.20;6.85;;;;;;;7.68;59.28;93130.94;5025660;28;20026;-81
2024/02/10 06:09:44;;;;;;;16.88;6.65;;;;;;;7.69;59.29;93132.50;5025501;28;20072;-80
2024/02/10 06:12:10;;;;;;;16.98;6.57;;;;;;;7.72;59.44;93139.84;5025258;28;20030;-81
2024/02/10 06:14:37;;;;;;;19.20;7.53;;;;;;;7.71;59.78;93130.31;5025227;28;20074;-82
2024/02/10 06:17:04;;;;;;;23.33;7.63;;;;;;;7.77;59.45;93130.94;5025232;28;20055;-81
2024/02/10 06:19:29;;;;;;;23.05;8.15;;;;;;;7.77;59.51;93129.06;5025121;28;20076;-81
2024/02/10 06:21:54;;;;;;;25.70;7.65;;;;;;;7.81;59.36;93137.94;5025013;28;20315;-81
2024/02/10 06:24:20;;;;;;;24.73;8.43;;;;;;;7.82;59.63;93120.94;5024936;28;20328;-80
2024/02/10 06:26:46;;;;;;;33.42;8.88;;;;;;;7.82;59.80;93147.47;5024856;28;20032;-81
2024/02/10 06:29:15;;;;;;;27.27;7.45;;;;;;;7.76;59.24;93134.69;5024783;28;20022;-79
2024/02/10 06:31:42;;;;;;;31.52;9.27;;;;;;;7.67;59.64;93153.25;5024675;28;20029;-79
2024/02/10 06:34:08;;;;;;;17.33;7.07;;;;;;;7.70;59.68;93133.28;5022618;28;20029;-79
2024/02/10 06:36:34;;;;;;;22.70;7.60;;;;;;;7.70;60.05;93141.25;5024710;28;20209;-79
2024/02/10 06:39:00;;;;;;;21.30;8.18;;;;;;;7.77;60.57;93144.97;5024211;28;20056;-78
2024/02/10 06:41:27;;;;;;;25.77;7.35;;;;;;;7.78;60.44;93149.19;5024665;28;20034;-83
2024/02/10 06:43:53;;;;;;;22.38;7.43;;;;;;;7.82;60.96;93147.47;5024414;28;20105;-82
2024/02/10 06:46:18;;;;;;;20.02;6.80;;;;;;;7.86;60.32;93154.81;5024936;28;20029;-83
2024/02/10 06:48:43;;;;;;;18.83;6.85;;;;;;;7.93;61.62;93163.09;5025083;28;20030;-85
2024/02/10 06:51:11;;;;;;;21.95;7.43;;;;;;;7.96;60.78;93160.59;5025073;28;20144;-85
2024/02/10 06:53:37;;;;;;;15.35;6.55;;;;;;;8.05;61.22;93157.94;5025258;28;20213;-85
2024/02/10 06:56:03;;;;;;;28.63;8.52;;;;;;;8.20;60.23;93162.75;5025800;28;20097;-84
2024/02/10 06:58:29;;;;;;;27.90;8.98;;;;;;;8.26;59.59;93170.56;5025464;28;20036;-81
2024/02/10 07:00:55;;;;;;;30.40;8.82;;;;;;;8.35;60.13;93153.50;5024953;28;20093;-82
2024/02/10 07:03:20;;;;;;;34.05;10.68;;;;;;;8.46;61.33;93169.16;5025299;28;20105;-83
2024/02/10 07:05:49;;;;;;;25.13;8.85;;;;;;;8.64;62.64;93171.44;5024562;28;20070;-81
2024/02/10 07:08:18;;;;;;;29.38;8.93;;;;;;;8.68;59.17;93160.97;5024433;28;20034;-77
2024/02/10 07:10:46;;;;;;;26.85;7.63;;;;;;;8.82;59.01;93174.81;5024325;28;20026;-82
2024/02/10 07:13:12;;;;;;;31.70;9.02;;;;;;;8.95;58.11;93165.06;5025249;28;20024;-85
2024/02/10 07:15:37;;;;;;;28.00;7.85;;;;;;;9.12;57.62;93164.22;5024452;28;20025;-84
2024/02/10 07:18:06;;;;;;;35.72;7.55;;;;;;;9.23;57.30;93154.78;5022377;28;20053;-82
2024/02/10 07:20:34;;;;;;;26.00;6.95;;;;;;;9.37;57.01;93143.13;5022843;28;20021;-85
2024/02/10 07:23:03;;;;;;;19.98;7.07;;;;;;;9.48;56.51;93164.81;5023044;28;20024;-86
2024/02/10 07:25:33;;;;;;;25.58;7.75;;;;;;;9.55;56.06;93152.56;5023514;28;20055;-84
2024/02/10 07:28:11;;;;;;;19.30;7.82;;;;;;;9.70;55.75;93159.19;5025005;28;20260;-84
2024/02/10 07:30:51;;;;;;;21.30;7.22;;;;;;;9.84;54.97;93167.69;5023934;28;20106;-85
2024/02/10 07:33:18;;;;;;;13.68;6.55;;;;;;;9.97;53.95;93160.56;5023595;28;20022;-85
2024/02/10 07:35:49;;;;;;;25.02;8.73;;;;;;;10.06;53.28;93152.50;5023509;28;20259;-85
2024/02/10 07:38:15;;;;;;;16.17;6.30;;;;;;;10.15;53.06;93155.06;5023696;28;20049;-85
2024/02/10 07:40:40;;;;;;;25.27;7.53;;;;;;;10.25;52.73;93139.47;5023240;28;20248;-85
2024/02/10 07:43:09;;;;;;;16.80;6.03;;;;;;;10.26;52.02;93145.59;5023906;28;20015;-85
2024/02/10 07:45:34;;;;;;;23.23;6.85;;;;;;;10.28;51.81;93137.25;5023419;28;20033;-85
2024/02/10 07:48:00;;;;;;;25.23;6.82;;;;;;;10.39;51.71;93128.56;5024036;28;20018;-86
2024/02/10 07:50:26;;;;;;;24.58;7.03;;;;;;;10.50;51.51;93128.13;5023798;28;20025;-84
2024/02/10 07:52:53;;;;;;;36.97;6.50;;;;;;;10.63;51.40;93130.50;5023728;28;20084;-85
2024/02/10 07:55:20;;;;;;;19.48;7.55;;;;;;;10.75;50.98;93134.31;5023734;28;20041;-86
2024/02/10 07:57:46;;;;;;;23.65;6.97;;;;;;;10.77;50.84;93121.41;5023726;28;20034;-85
2024/02/10 08:00:16;;;;;;;18.40;6.65;;;;;;;10.91;50.73;93127.22;5022488;28;20380;-85
2024/02/10 08:02:43;;;;;;;24.77;6.55;;;;;;;10.99;50.39;93114.84;5023651;28;20042;-85
2024/02/10 08:05:10;;;;;;;24.50;6.68;;;;;;;10.83;50.12;93128.88;5023911;28;20061;-85
2024/02/10 08:07:36;;;;;;;29.15;7.03;;;;;;;10.81;50.16;93144.41;5023520;28;20380;-85
2024/02/10 08:10:06;;;;;;;25.50;7.22;;;;;;;10.86;49.48;93124.75;5022827;28;20076;-85
2024/02/10 08:12:33;;;;;;;26.27;7.53;;;;;;;10.73;49.69;93152.50;5023180;28;20028;-85
2024/02/10 08:14:59;;;;;;;21.95;7.63;;;;;;;10.55;50.35;93136.69;5022196;28;20026;-84
2024/02/10 08:17:26;;;;;;;21.42;7.20;;;;;;;10.64;49.70;93145.38;5023077;28;20259;-85
2024/02/10 08:19:59;;;;;;;28.63;8.77;;;;;;;10.74;49.96;93154.06;5023580;28;20026;-85
2024/02/10 08:22:25;;;;;;;24.00;7.10;;;;;;;10.80;49.95;93163.41;5023279;28;20018;-84
2024/02/10 08:24:55;;;;;;;28.50;7.57;;;;;;;10.88;50.36;93157.19;5023348;28;20033;-85
2024/02/10 08:27:25;;;;;;;30.08;8.60;;;;;;;11.00;50.06;93151.88;5023299;28;20028;-84
2024/02/10 08:29:51;;;;;;;25.95;7.28;;;;;;;11.14;49.43;93167.53;5023310;28;20370;-85
2024/02/10 08:32:16;;;;;;;25.33;8.18;;;;;;;11.21;49.09;93150.97;5022263;28;20025;-85
2024/02/10 08:34:42;;;;;;;28.17;7.78;;;;;;;11.36;48.97;93158.31;5023195;28;20049;-84
2024/02/10 08:37:09;;;;;;;33.33;8.85;;;;;;;11.50;47.99;93162.53;5023106;28;20026;-82
2024/02/10 08:39:36;;;;;;;31.30;9.13;;;;;;;11.42;48.31;93156.22;5022755;28;20025;-85
2024/02/10 08:42:05;;;;;;;27.77;8.85;;;;;;;11.55;47.90;93155.06;5023009;28;20057;-85
2024/02/10 08:44:32;;;;;;;30.02;8.32;;;;;;;11.65;47.57;93153.84;5023066;28;20093;-85
2024/02/10 08:46:59;;;;;;;18.63;7.80;;;;;;;11.76;46.91;93164.81;5022222;28;20116;-85
2024/02/10 08:49:25;;;;;;;25.95;7.43;;;;;;;11.87;46.84;93175.84;5023072;28;20097;-85
2024/02/10 08:51:53;;;;;;;26.05;7.90;;;;;;;11.99;46.74;93183.84;5021941;28;20107;-85
2024/02/10 08:54:19;;;;;;;29.92;8.10;;;;;;;12.04;46.92;93184.38;5023026;28;20022;-85
2024/02/10 08:56:45;;;;;;;22.58;8.05;;;;;;;12.23;46.31;93177.63;5022906;28;20374;-85
2024/02/10 08:59:12;;;;;;;29.55;7.93;;;;;;;12.38;46.11;93181.50;5026727;28;20048;-85
2024/02/10 09:01:42;;;;;;;32.90;8.65;;;;;;;12.56;45.91;93169.38;5026724;28;20072;-85
2024/02/10 09:04:10;;;;;;;31.30;7.47;;;;;;;12.61;44.57;93155.75;5026380;28;20022;-85
2024/02/10 09:06:36;;;;;;;21.02;7.00;;;;;;;12.73;44.73;93173.63;5026238;28;20063;-85
2024/02/10 09:09:03;;;;;;;25.63;7.97;;;;;;;12.82;45.11;93166.25;5026381;28;20279;-85
2024/02/10 09:11:36;;;;;;;24.73;7.93;;;;;;;12.94;44.53;93173.38;5026339;28;20017;-85
2024/02/10 09:14:02;;;;;;;29.60;8.85;;;;;;;13.01;44.44;93156.75;5025147;28;20042;-85
2024/02/10 09:16:28;;;;;;;40.72;8.80;;;;;;;13.07;44.24;93157.25;5026174;28;20022;-85
2024/02/10 09:18:53;;;;;;;34.83;8.55;;;;;;;13.04;43.50;93150.72;5025936;28;20375;-85
2024/02/10 09:21:19;;;;;;;25.92;5.60;;;;;;;13.08;41.31;93150.81;5025336;28;20025;-85
2024/02/10 09:23:47;;;;;;;27.15;8.55;;;;;;;13.11;43.61;93158.91;5026222;28;20093;-86
2024/02/10 09:26:16;;;;;;;25.17;8.35;;;;;;;13.08;43.79;93164.19;5026262;28;20057;-85
2024/02/10 09:28:47;;;;;;;26.73;8.50;;;;;;;13.15;43.92;93162.47;5025976;28;20048;-85
2024/02/10 09:31:13;;;;;;;18.50;3.17;;;;;;;13.28;35.49;93144.41;5025792;28;20104;-85
2024/02/10 09:33:39;;;;;;;24.20;7.50;;;;;;;13.44;40.25;93147.88;5025868;28;20018;-83
2024/02/10 09:36:08;;;;;;;30.42;7.38;;;;;;;13.51;42.15;93154.50;5024379;28;20316;-85
2024/02/10 09:38:34;;;;;;;26.48;7.72;;;;;;;13.60;42.57;93125.66;5025645;28;20022;-84
2024/02/10 09:41:00;;;;;;;18.98;7.28;;;;;;;13.67;40.91;93139.19;5025922;28;20104;-84
2024/02/10 09:43:32;;;;;;;18.55;6.07;;;;;;;13.76;40.44;93122.91;5025840;28;20017;-84
2024/02/10 09:46:06;;;;;;;7.40;3.85;;;;;;;13.94;37.01;93142.84;5025855;28;20267;-84
2024/02/10 09:48:36;;;;;;;11.32;2.38;;;;;;;14.11;32.92;93136.28;5025770;28;20022;-84
2024/02/10 09:51:02;;;;;;;9.88;2.45;;;;;;;14.39;32.24;93103.88;5025585;28;20036;-84
2024/02/10 09:53:27;;;;;;;13.13;3.13;;;;;;;14.55;32.80;93122.56;5025615;28;20053;-84
2024/02/10 09:55:56;;;;;;;5.03;2.00;;;;;;;14.74;31.32;93113.72;5025526;28;20097;-84
2024/02/10 09:58:24;;;;;;;8.15;2.00;;;;;;;14.98;30.89;93115.28;5025375;28;20332;-84
2024/02/10 10:00:50;;;;;;;16.38;3.55;;;;;;;15.22;30.11;93122.19;5025229;28;20320;-85
2024/02/10 10:03:16;;;;;;;5.43;1.70;;;;;;;15.29;28.94;93102.72;5024308;28;20022;-85
2024/02/10 10:05:45;;;;;;;11.63;3.17;;;;;;;15.34;31.39;93123.13;5024093;28;20018;-84
2024/02/10 10:08:11;;;;;;;5.05;1.40;;;;;;;15.48;28.76;93122.56;5024836;28;20041;-85
2024/02/10 10:10:37;;;;;;;8.15;1.52;;;;;;;15.57;28.07;93107.75;5024090;28;20373;-85
2024/02/10 10:13:06;;;;;;;6.28;1.80;;;;;;;15.69;28.33;93114.78;5025085;28;20022;-85
2024/02/10 10:15:31;;;;;;;4.05;1.63;;;;;;;15.65;27.75;93108.59;5025437;28;20370;-85
2024/02/10 10:17:57;;;;;;;14.68;2.63;;;;;;;15.47;28.26;93124.47;5023650;28;20022;-85
2024/02/10 10:20:23;;;;;;;8.55;2.70;;;;;;;15.64;30.02;93134.69;5024882;28;20067;-85
2024/02/10 10:22:50;;;;;;;15.15;2.08;;;;;;;15.48;28.00;93117.19;5025250;28;20104;-85
2024/02/10 10:25:16;;;;;;;7.10;1.52;;;;;;;15.08;28.28;93119.25;5025124;28;20022;-85
2024/02/10 10:27:41;;;;;;;6.40;1.67;;;;;;;15.02;28.53;93107.28;5023681;28;20036;-85
2024/02/10 10:30:11;;;;;;;5.40;1.45;;;;;;;15.05;28.52;93114.63;5024938;28;20088;-85
2024/02/10 10:32:42;;;;;;;13.07;2.20;;;;;;;15.05;28.40;93083.19;5024378;28;20032;-86
2024/02/10 10:35:11;;;;;;;5.90;1.23;;;;;;;14.93;28.44;93098.72;5024525;28;20093;-86
2024/02/10 10:37:37;;;;;;;16.30;2.20;;;;;;;14.80;28.63;93085.47;5024644;28;20203;-85
2024/02/10 10:40:08;;;;;;;8.95;1.52;;;;;;;14.83;28.27;93081.28;5023383;28;20025;-85
2024/02/10 10:42:37;;;;;;;12.57;1.58;;;;;;;14.78;27.89;93079.69;5024640;28;20024;-85
2024/02/10 10:45:05;;;;;;;14.20;1.85;;;;;;;14.79;28.56;93080.47;5024542;28;20036;-84
2024/02/10 10:47:30;;;;;;;19.83;4.25;;;;;;;14.87;28.87;93081.34;5024453;28;20141;-84
2024/02/10 10:49:57;;;;;;;6.95;1.50;;;;;;;15.06;28.32;93094.69;5024328;28;20045;-84
2024/02/10 10:52:27;;;;;;;6.28;1.67;;;;;;;15.20;28.22;93086.09;5024120;28;20276;-84
2024/02/10 10:54:55;;;;;;;12.10;2.00;;;;;;;15.24;28.66;93095.75;5024406;28;20026;-84
2024/02/10 10:57:25;;;;;;;5.10;1.55;;;;;;;15.31;28.65;93095.09;5024397;28;20022;-84
2024/02/10 11:00:11;;;;;;;4.78;1.20;;;;;;;15.33;27.99;93108.94;5023443;28;20021;-84
2024/02/10 11:02:39;;;;;;;9.38;1.75;;;;;;;15.41;28.44;93107.91;5024361;28;20305;-84
2024/02/10 11:05:12;;;;;;;12.43;2.15;;;;;;;15.49;27.91;93097.25;5023883;28;20026;-84
2024/02/10 11:07:45;;;;;;;6.75;1.65;;;;;;;15.42;27.39;93096.00;5023986;28;20220;-83
2024/02/10 11:10:10;;;;;;;;;;;;;;;15.40;27.83;93094.81;5024378;28;20025;-83
2024/02/10 11:12:36;;;;;;;3.35;1.20;;;;;;;15.33;27.84;93084.75;5024105;28;19961;-84
2024/02/10 11:15:08;;;;;;;6.25;1.23;;;;;;;15.31;27.72;93088.94;5022608;28;20267;-86
2024/02/10 11:17:34;;;;;;;8.73;1.33;;;;;;;15.21;27.96;93068.84;5023885;28;20030;-85
2024/02/10 11:20:04;;;;;;;8.20;1.38;;;;;;;15.21;28.10;93082.28;5023428;28;20026;-85
2024/02/10 11:22:36;;;;;;;5.35;1.42;;;;;;;15.28;27.68;93077.00;5023975;28;20034;-85
2024/02/10 11:25:11;;;;;;;9.98;1.83;;;;;;;15.31;27.66;93070.94;5023724;28;20022;-85
2024/02/10 11:27:40;;;;;;;7.03;1.63;;;;;;;15.33;28.01;93089.38;5023803;28;20022;-85
2024/02/10 11:30:07;;;;;;;7.68;1.80;;;;;;;15.35;28.27;93085.19;5024044;28;20068;-85
2024/02/10 11:32:33;;;;;;;9.60;1.88;;;;;;;15.42;27.69;93087.94;5023938;28;20021;-85